Joe Foss Field Airport
KFSD : now visible

Airfield :











YOU CAN JOIN US ON...

 
LOGIN :

Register | Disclaimer

   EN    FR    IT 

 









Legend :    VFR   Marginal VFR   IFR   Intensive IFR   Very Intensive IFR
Visi :
Ceiling :
>= 8 km
>= 3000ft
5 to 8 km
1000 to 3000 ft
1500m to 5 km
500 to 1000 ft
800 to 1500m
200 to 500 ft
< 800m
< 200 ft
Symbols :   Thunderstorms  Fog  Heavy snow  Heavy precipitations  Wind > 20 kt






- Airport Elevation : 1429 ft
- IATA code : FSD


KFSD - Joe Foss Field

CURRENT METAR :
  • 231356Z 30019G30KT 10SM CLR 11/01 A2985 RMK AO2 PK WND 30031/1340 SLP109 T01110006

EXPIRED METARs :
  • 231256Z 30014G23KT 10SM FEW170 10/M01 A2983 RMK AO2 SLP101 T01001011
  • 231156Z 29012KT 10SM BKN170 BKN250 09/M03 A2981 RMK AO2 SLP093 T00891028 10111 20056 53015
  • 231056Z 29010KT 10SM BKN170 10/M03 A2979 RMK AO2 SLP088 T01001033
  • 230956Z 30011KT 10SM OVC150 11/M04 A2977 RMK AO2 SLP080 T01061039

TAF KFSD
Valid from the 23 at 12:00 until the 24 at 12:00 UTC


231120Z 2312/2412 29012G18KT P6SM SCT150
FM231400 30018G29KT P6SM FEW250
FM231600 32021G30KT P6SM SCT040
FM232200 34016G23KT P6SM SCT060
FM240100 35010G16KT P6SM FEW250
FM240400 01005KT P6SM SKC
KZMP FIR / North America



MET'MAP, your aeronautical weather chart ! - Copyright ORBIFLY December 2007 - Disclaimer

ORBIFLY MET'MAP TEAM :

Programming & Development : Alexandra Zaïnal
Original concept : Baudouin d'Aumeries
Technical & hardware support : Manuel Goepfert
Assistance : Marc-Olivier Méhu




SOURCES & CREDITS :

   NOAA       Earth
Advisory